createdAt,value
2018-03-04T00:00:56.916Z,34.13
2018-03-04T00:03:22.958Z,34.80
2018-03-04T00:05:48.993Z,34.93
2018-03-04T00:08:15.082Z,34.50
2018-03-04T00:10:41.170Z,33.83
2018-03-04T00:13:07.190Z,36.07
2018-03-04T00:15:33.251Z,34.60
2018-03-04T00:17:59.298Z,34.90
2018-03-04T00:20:25.358Z,37.90
2018-03-04T00:22:51.400Z,37.90
2018-03-04T00:25:17.416Z,34.33
2018-03-04T00:27:50.511Z,36.03
2018-03-04T00:30:16.525Z,35.37
2018-03-04T00:32:42.581Z,36.50
2018-03-04T00:35:08.577Z,39.40
2018-03-04T00:37:34.600Z,37.67
2018-03-04T00:40:00.622Z,36.90
2018-03-04T00:42:26.649Z,37.53
2018-03-04T00:44:52.669Z,34.17
2018-03-04T00:47:18.700Z,36.13
2018-03-04T00:49:44.837Z,34.97
2018-03-04T00:52:10.891Z,35.83
2018-03-04T00:54:36.889Z,33.00
2018-03-04T00:57:02.959Z,34.67
2018-03-04T00:59:29.053Z,35.33
2018-03-04T01:01:55.095Z,30.40
2018-03-04T01:04:21.125Z,35.50
2018-03-04T01:06:47.150Z,34.73
2018-03-04T01:09:13.214Z,33.23
2018-03-04T01:11:39.296Z,34.33
2018-03-04T01:14:05.404Z,35.93
2018-03-04T01:16:31.401Z,32.60
2018-03-04T01:18:57.418Z,33.23
2018-03-04T01:21:23.405Z,36.50
2018-03-04T01:23:49.517Z,33.50
2018-03-04T01:26:22.442Z,34.87
2018-03-04T01:28:48.433Z,35.00
2018-03-04T01:31:14.450Z,33.27
2018-03-04T01:33:40.450Z,34.00
2018-03-04T01:36:06.465Z,37.07
2018-03-04T01:38:32.416Z,32.80
2018-03-04T01:40:58.452Z,35.30
2018-03-04T01:43:24.484Z,34.90
2018-03-04T01:45:50.536Z,33.13
2018-03-04T01:48:16.565Z,34.43
2018-03-04T01:50:42.588Z,33.47
2018-03-04T01:53:08.573Z,33.20
2018-03-04T01:55:34.614Z,35.03
2018-03-04T01:58:00.678Z,36.37
2018-03-04T02:00:26.673Z,30.63
2018-03-04T02:02:52.764Z,35.33
2018-03-04T02:05:18.766Z,33.80
2018-03-04T02:07:44.791Z,32.10
2018-03-04T02:10:10.812Z,34.77
2018-03-04T02:12:36.819Z,37.10
2018-03-04T02:15:03.429Z,32.93
2018-03-04T02:17:29.490Z,36.40
2018-03-04T02:19:55.525Z,36.67
2018-03-04T02:22:21.565Z,37.67
2018-03-04T02:24:47.624Z,35.00
2018-03-04T02:27:13.722Z,37.53
2018-03-04T02:29:39.745Z,39.73
2018-03-04T02:32:05.803Z,39.77
2018-03-04T02:34:31.847Z,39.80
2018-03-04T02:36:57.862Z,39.77
2018-03-04T02:39:23.831Z,39.53
2018-03-04T02:41:49.849Z,36.30
2018-03-04T02:44:15.906Z,39.30
2018-03-04T02:46:41.958Z,38.80
2018-03-04T02:49:07.975Z,39.60
2018-03-04T02:51:33.975Z,39.93
2018-03-04T02:53:59.976Z,37.40
2018-03-04T02:56:26.006Z,40.93
2018-03-04T02:58:52.009Z,39.83
2018-03-04T03:01:18.105Z,43.43
2018-03-04T03:03:44.073Z,40.00
2018-03-04T03:06:10.073Z,42.97
2018-03-04T03:08:36.073Z,40.27
2018-03-04T03:11:02.035Z,41.77
2018-03-04T03:13:28.084Z,41.00
2018-03-04T03:15:54.030Z,41.47
2018-03-04T03:18:20.022Z,44.40
2018-03-04T03:20:46.057Z,43.57
2018-03-04T03:23:12.032Z,38.03
2018-03-04T03:25:38.092Z,40.27
2018-03-04T03:28:04.124Z,40.97
2018-03-04T03:30:30.125Z,42.00
2018-03-04T03:32:56.129Z,40.93
2018-03-04T03:35:22.202Z,47.40
2018-03-04T03:37:48.210Z,43.87
2018-03-04T03:40:14.221Z,41.47
2018-03-04T03:42:40.177Z,45.50
2018-03-04T03:45:06.194Z,48.27
2018-03-04T03:47:32.214Z,45.43
2018-03-04T03:49:58.191Z,44.47
2018-03-04T03:52:24.218Z,42.97
2018-03-04T03:54:50.298Z,50.07
2018-03-04T03:57:16.300Z,46.13
2018-03-04T03:59:42.338Z,44.57
2018-03-04T04:02:08.418Z,48.57
2018-03-04T04:04:34.409Z,42.43
2018-03-04T04:07:00.465Z,45.90
2018-03-04T04:09:26.507Z,46.90
2018-03-04T04:11:52.482Z,44.70
2018-03-04T04:14:18.503Z,49.97
2018-03-04T04:16:44.676Z,44.10
2018-03-04T04:19:10.685Z,45.03
2018-03-04T04:21:36.798Z,45.37
2018-03-04T04:24:02.805Z,47.67
2018-03-04T04:26:29.031Z,44.10
2018-03-04T04:28:55.155Z,48.40
2018-03-04T04:31:21.178Z,48.30
2018-03-04T04:33:47.217Z,50.90
2018-03-04T04:36:13.238Z,46.73
2018-03-04T04:38:39.245Z,50.00
2018-03-04T04:41:05.306Z,50.47
2018-03-04T04:43:31.353Z,47.53
2018-03-04T04:45:57.457Z,49.33
2018-03-04T04:48:23.537Z,48.13
2018-03-04T04:50:49.591Z,48.47
2018-03-04T04:53:15.621Z,48.70
2018-03-04T04:55:41.645Z,44.50
2018-03-04T04:58:07.662Z,47.90
2018-03-04T05:00:33.812Z,48.00
2018-03-04T05:02:59.908Z,43.27
2018-03-04T05:05:25.899Z,47.40
2018-03-04T05:07:52.030Z,47.10
2018-03-04T05:10:18.026Z,44.13
2018-03-04T05:12:44.042Z,45.63
2018-03-04T05:15:10.174Z,49.23
2018-03-04T05:17:36.166Z,46.50
2018-03-04T05:20:02.235Z,45.40
2018-03-04T05:22:28.239Z,49.00
2018-03-04T05:24:54.254Z,43.93
2018-03-04T05:27:20.238Z,47.27
2018-03-04T05:29:46.212Z,48.40
2018-03-04T05:32:12.293Z,47.57
2018-03-04T05:34:38.292Z,49.20
2018-03-04T05:37:04.310Z,48.27
2018-03-04T05:39:30.318Z,45.53
2018-03-04T05:41:56.324Z,48.50
2018-03-04T05:44:22.322Z,48.50
2018-03-04T05:46:48.392Z,47.70
2018-03-04T05:49:14.390Z,52.30
2018-03-04T05:51:40.422Z,52.60
2018-03-04T05:54:06.550Z,47.80
2018-03-04T05:56:32.584Z,51.83
2018-03-04T05:58:58.653Z,50.00
2018-03-04T06:01:24.736Z,51.07
2018-03-04T06:03:50.736Z,49.90
2018-03-04T06:06:16.805Z,49.97
2018-03-04T06:08:43.701Z,50.87
2018-03-04T06:11:09.809Z,50.33
2018-03-04T06:13:35.797Z,51.70
2018-03-04T06:16:01.916Z,50.37
2018-03-04T06:18:27.950Z,52.90
2018-03-04T06:20:53.950Z,52.23
2018-03-04T06:23:19.968Z,54.80
2018-03-04T06:25:45.988Z,50.17
2018-03-04T06:28:12.010Z,44.80
2018-03-04T06:30:38.002Z,49.77
2018-03-04T06:33:04.114Z,50.77
2018-03-04T06:35:30.093Z,53.70
2018-03-04T06:37:56.188Z,54.27
2018-03-04T06:40:22.229Z,51.07
2018-03-04T06:42:48.218Z,50.70
2018-03-04T06:45:14.179Z,53.40
2018-03-04T06:47:40.242Z,51.33
2018-03-04T06:50:06.429Z,51.90
2018-03-04T06:52:32.420Z,53.17
2018-03-04T06:54:58.534Z,55.80
2018-03-04T06:57:24.542Z,53.70
2018-03-04T06:59:50.573Z,52.17
2018-03-04T07:02:16.696Z,53.27
2018-03-04T07:04:42.721Z,52.63
2018-03-04T07:07:08.765Z,50.43
2018-03-04T07:09:34.796Z,49.30
2018-03-04T07:12:00.885Z,53.43
2018-03-04T07:14:26.910Z,55.13
2018-03-04T07:16:52.904Z,50.47
2018-03-04T07:19:18.906Z,54.60
2018-03-04T07:21:44.898Z,50.53
2018-03-04T07:24:10.936Z,50.37
2018-03-04T07:26:36.916Z,54.40
2018-03-04T07:29:02.909Z,47.77
2018-03-04T07:31:28.971Z,52.60
2018-03-04T07:33:55.262Z,50.73
2018-03-04T07:36:21.229Z,55.20
2018-03-04T07:38:47.336Z,54.27
2018-03-04T07:41:13.365Z,52.93
2018-03-04T07:43:39.373Z,54.23
2018-03-04T07:46:05.463Z,55.90
2018-03-04T07:48:31.455Z,54.07
2018-03-04T07:50:57.493Z,54.83
2018-03-04T07:53:23.525Z,54.13
2018-03-04T07:55:49.620Z,50.90
2018-03-04T07:58:15.645Z,53.00
2018-03-04T08:00:41.657Z,56.20
2018-03-04T08:03:07.693Z,52.63
2018-03-04T08:05:33.722Z,55.93
2018-03-04T08:07:59.713Z,55.73
2018-03-04T08:10:25.741Z,55.73
2018-03-04T08:12:51.838Z,53.70
2018-03-04T08:15:17.810Z,50.73
2018-03-04T08:17:43.844Z,59.27
2018-03-04T08:20:09.900Z,53.17
2018-03-04T08:22:35.941Z,55.80
2018-03-04T08:25:14.215Z,55.00
2018-03-04T08:27:52.581Z,54.13
2018-03-04T08:30:18.598Z,53.47
2018-03-04T08:32:44.627Z,57.03
2018-03-04T08:35:10.855Z,51.77
2018-03-04T08:37:36.866Z,58.30
2018-03-04T08:40:04.604Z,51.97
2018-03-04T08:42:30.639Z,56.87
2018-03-04T08:44:56.673Z,54.50
2018-03-04T08:47:22.703Z,55.80
2018-03-04T08:49:48.720Z,53.87
2018-03-04T08:52:14.736Z,54.87
2018-03-04T08:54:40.806Z,57.30
2018-03-04T08:57:06.857Z,57.03
2018-03-04T08:59:32.859Z,54.33
2018-03-04T09:01:58.909Z,53.90
2018-03-04T09:04:25.013Z,54.30
2018-03-04T09:06:51.153Z,56.77
2018-03-04T09:09:17.142Z,55.17
2018-03-04T09:11:43.157Z,58.40
2018-03-04T09:14:09.194Z,57.00
2018-03-04T09:16:35.204Z,54.70
2018-03-04T09:19:01.249Z,54.87
2018-03-04T09:21:27.194Z,55.97
2018-03-04T09:23:53.194Z,53.00
2018-03-04T09:26:19.221Z,56.20
2018-03-04T09:28:45.254Z,59.70
2018-03-04T09:31:11.234Z,47.97
2018-03-04T09:33:37.194Z,54.77
2018-03-04T09:36:03.241Z,55.30
2018-03-04T09:38:29.299Z,52.30
2018-03-04T09:40:55.367Z,52.80
2018-03-04T09:43:21.370Z,53.27
2018-03-04T09:45:47.378Z,50.97
2018-03-04T09:48:13.413Z,56.40
2018-03-04T09:50:39.385Z,56.83
2018-03-04T09:53:05.398Z,56.10
2018-03-04T09:55:31.441Z,59.80
2018-03-04T09:57:57.488Z,56.07
2018-03-04T10:00:23.527Z,52.43
2018-03-04T10:02:49.656Z,59.50
2018-03-04T10:05:15.694Z,53.07
2018-03-04T10:07:41.685Z,52.83
2018-03-04T10:10:07.768Z,57.10
2018-03-04T10:12:33.817Z,53.10
2018-03-04T10:15:06.907Z,54.77
2018-03-04T10:17:32.910Z,57.40
2018-03-04T10:19:58.973Z,56.07
2018-03-04T10:22:25.061Z,55.67
2018-03-04T10:24:51.105Z,54.37
2018-03-04T10:27:17.161Z,56.73
2018-03-04T10:29:43.116Z,58.20
2018-03-04T10:32:09.254Z,57.57
2018-03-04T10:34:35.281Z,57.87
2018-03-04T10:37:01.363Z,57.23
2018-03-04T10:39:27.465Z,53.57
2018-03-04T10:41:53.477Z,55.50
2018-03-04T10:44:19.624Z,55.47
2018-03-04T10:46:45.613Z,57.10
2018-03-04T10:49:11.635Z,53.47
2018-03-04T10:51:37.722Z,57.10
2018-03-04T10:54:03.801Z,55.67
2018-03-04T10:56:29.933Z,54.77
2018-03-04T10:58:55.961Z,59.27
2018-03-04T11:01:28.098Z,55.00
2018-03-04T11:03:54.306Z,54.00
2018-03-04T11:06:20.309Z,55.20
2018-03-04T11:08:46.339Z,50.17
2018-03-04T11:11:12.375Z,52.80
2018-03-04T11:13:38.404Z,51.90
2018-03-04T11:16:04.416Z,54.37
2018-03-04T11:18:30.426Z,50.33
2018-03-04T11:20:56.490Z,50.70
2018-03-04T11:23:22.527Z,51.43
2018-03-04T11:25:48.577Z,52.03
2018-03-04T11:28:14.646Z,53.87
2018-03-04T11:30:40.740Z,53.23
2018-03-04T11:33:06.750Z,53.93
2018-03-04T11:35:32.806Z,50.90
2018-03-04T11:37:58.858Z,54.47
2018-03-04T11:40:24.841Z,47.03
2018-03-04T11:42:50.884Z,49.30
2018-03-04T11:45:16.849Z,52.30
2018-03-04T11:47:43.021Z,53.53
2018-03-04T11:50:09.253Z,51.30
2018-03-04T11:52:35.261Z,55.03
2018-03-04T11:55:01.352Z,56.00
2018-03-04T11:57:27.366Z,55.67
2018-03-04T11:59:53.425Z,53.17
2018-03-04T12:02:19.489Z,51.83
2018-03-04T12:04:45.560Z,58.10
2018-03-04T12:07:11.578Z,53.97
2018-03-04T12:09:37.698Z,56.00
2018-03-04T12:12:03.670Z,53.80
2018-03-04T12:14:29.683Z,50.50
2018-03-04T12:16:55.764Z,53.40
2018-03-04T12:19:21.791Z,53.80
2018-03-04T12:21:47.904Z,54.93
2018-03-04T12:24:13.914Z,52.20
2018-03-04T12:26:39.910Z,52.87
2018-03-04T12:29:05.937Z,54.20
2018-03-04T12:31:32.010Z,52.10
2018-03-04T12:33:58.045Z,50.50
2018-03-04T12:36:24.033Z,51.70
2018-03-04T12:38:50.094Z,53.13
2018-03-04T12:41:16.117Z,55.10
2018-03-04T12:43:42.152Z,53.67
2018-03-04T12:46:08.193Z,49.30
2018-03-04T12:48:34.218Z,53.23
2018-03-04T12:51:00.298Z,48.97
2018-03-04T12:53:26.272Z,50.97
2018-03-04T12:55:52.299Z,48.33
2018-03-04T12:58:18.385Z,53.80
2018-03-04T13:00:44.445Z,50.77
2018-03-04T13:03:10.506Z,51.73
2018-03-04T13:05:36.513Z,47.40
2018-03-04T13:08:02.518Z,48.40
2018-03-04T13:10:28.588Z,46.27
2018-03-04T13:12:54.610Z,46.53
2018-03-04T13:15:20.677Z,52.90
2018-03-04T13:17:46.654Z,46.57
2018-03-04T13:20:12.679Z,45.23
2018-03-04T13:22:38.654Z,46.53
2018-03-04T13:25:04.673Z,44.90
2018-03-04T13:27:30.725Z,44.33
2018-03-04T13:29:56.741Z,42.20
2018-03-04T13:32:22.773Z,42.87
2018-03-04T13:34:48.793Z,40.10
2018-03-04T13:37:14.798Z,42.23
2018-03-04T13:39:40.842Z,44.20
2018-03-04T13:42:06.886Z,39.43
2018-03-04T13:44:32.909Z,43.03
2018-03-04T13:46:58.966Z,39.30
2018-03-04T13:49:25.034Z,39.27
2018-03-04T13:51:51.067Z,42.03
2018-03-04T13:54:17.111Z,43.87
2018-03-04T13:56:43.276Z,40.23
2018-03-04T13:59:09.411Z,43.30
2018-03-04T14:01:35.505Z,42.97
2018-03-04T14:04:01.533Z,41.50
2018-03-04T14:06:27.573Z,43.60
2018-03-04T14:08:53.641Z,43.20
2018-03-04T14:11:19.646Z,41.80
2018-03-04T14:13:45.650Z,42.77
2018-03-04T14:16:11.672Z,43.60
2018-03-04T14:18:37.733Z,40.20
2018-03-04T14:21:03.731Z,40.97
2018-03-04T14:23:29.774Z,34.20
2018-03-04T14:25:56.125Z,40.30
2018-03-04T14:28:22.118Z,30.30
2018-03-04T14:30:48.297Z,36.97
2018-03-04T14:33:14.344Z,32.40
2018-03-04T14:35:40.401Z,32.83
2018-03-04T14:38:06.453Z,33.90
2018-03-04T14:40:32.449Z,31.30
2018-03-04T14:42:58.442Z,32.30
2018-03-04T14:45:24.511Z,29.77
2018-03-04T14:47:50.609Z,30.90
2018-03-04T14:50:16.699Z,32.57
2018-03-04T14:52:45.783Z,30.17
2018-03-04T14:55:11.801Z,32.20
2018-03-04T14:57:37.849Z,34.80
2018-03-04T15:00:03.808Z,30.27
2018-03-04T15:02:29.841Z,31.97
2018-03-04T15:04:55.905Z,30.67
2018-03-04T15:07:21.935Z,33.03
2018-03-04T15:09:47.934Z,34.30
2018-03-04T15:12:13.973Z,33.17
2018-03-04T15:14:40.024Z,35.07
2018-03-04T15:17:06.034Z,33.80
2018-03-04T15:19:32.113Z,32.70
2018-03-04T15:21:58.182Z,30.37
2018-03-04T15:24:24.368Z,32.47
2018-03-04T15:26:50.391Z,34.50
2018-03-04T15:29:16.319Z,34.43
2018-03-04T15:31:42.448Z,34.57
2018-03-04T15:34:08.459Z,33.90
2018-03-04T15:39:07.406Z,34.83
2018-03-04T15:41:33.452Z,34.60
2018-03-04T15:43:59.471Z,35.20
2018-03-04T15:46:25.509Z,33.33
2018-03-04T15:48:51.592Z,36.37
2018-03-04T15:51:17.619Z,35.20
2018-03-04T15:53:43.654Z,34.10
2018-03-04T15:56:09.718Z,37.27
2018-03-04T15:58:35.694Z,35.17
2018-03-04T16:01:01.746Z,32.27
2018-03-04T16:03:27.770Z,31.20
2018-03-04T16:05:53.749Z,31.70
2018-03-04T16:08:19.800Z,36.90
2018-03-04T16:10:45.805Z,32.67
2018-03-04T16:13:11.882Z,33.67
2018-03-04T16:15:37.998Z,32.40
2018-03-04T16:18:03.998Z,35.13
2018-03-04T16:20:30.017Z,35.83
2018-03-04T16:22:56.041Z,35.10
2018-03-04T16:25:22.117Z,35.10
2018-03-04T16:27:48.131Z,37.73
2018-03-04T16:30:14.157Z,36.23
2018-03-04T16:32:40.241Z,37.47
2018-03-04T16:35:06.362Z,35.97
2018-03-04T16:37:32.477Z,32.97
2018-03-04T16:39:58.477Z,32.57
2018-03-04T16:42:24.552Z,28.13
2018-03-04T16:44:50.630Z,27.70
2018-03-04T16:47:16.681Z,28.67
2018-03-04T16:49:42.713Z,29.13
2018-03-04T16:52:08.806Z,26.63
2018-03-04T16:54:34.754Z,29.63
2018-03-04T16:57:00.754Z,28.83
2018-03-04T16:59:26.768Z,26.13
2018-03-04T17:01:52.967Z,28.90
2018-03-04T17:04:18.993Z,28.63
2018-03-04T17:06:45.050Z,29.57
2018-03-04T17:09:11.097Z,30.17
2018-03-04T17:11:37.113Z,29.00
2018-03-04T17:14:03.234Z,30.53
2018-03-04T17:16:29.416Z,30.30
2018-03-04T17:18:55.430Z,35.03
2018-03-04T17:21:21.589Z,30.67
2018-03-04T17:23:47.674Z,28.63
2018-03-04T17:26:13.760Z,30.10
2018-03-04T17:28:39.783Z,28.33
2018-03-04T17:31:05.819Z,30.40
2018-03-04T17:33:31.902Z,28.80
2018-03-04T17:35:57.849Z,28.30
2018-03-04T17:38:23.846Z,32.27
2018-03-04T17:40:49.965Z,29.40
2018-03-04T17:43:15.946Z,28.70
2018-03-04T17:45:41.962Z,28.87
2018-03-04T17:48:07.979Z,31.80
2018-03-04T17:50:33.977Z,32.77
2018-03-04T17:53:00.016Z,31.23
2018-03-04T17:55:26.125Z,30.90
2018-03-04T17:57:52.216Z,33.97
2018-03-04T18:00:18.360Z,33.47
2018-03-04T18:02:44.616Z,31.03
2018-03-04T18:05:10.616Z,33.13
2018-03-04T18:07:36.906Z,34.10
2018-03-04T18:10:03.167Z,32.80
2018-03-04T18:12:29.238Z,30.67
2018-03-04T18:14:55.337Z,33.53
2018-03-04T18:17:21.388Z,33.37
2018-03-04T18:19:47.429Z,33.23
2018-03-04T18:22:13.460Z,34.90
2018-03-04T18:24:39.601Z,31.90
2018-03-04T18:27:05.669Z,32.10
2018-03-04T18:29:31.772Z,36.37
2018-03-04T18:31:57.759Z,35.40
2018-03-04T18:34:23.808Z,34.67
2018-03-04T18:36:49.853Z,34.40
2018-03-04T18:39:15.873Z,36.40
2018-03-04T18:41:41.906Z,43.70
2018-03-04T18:44:07.977Z,41.03
2018-03-04T18:46:34.278Z,39.93
2018-03-04T18:49:01.341Z,40.33
2018-03-04T18:51:27.426Z,38.00
2018-03-04T18:53:53.511Z,38.77
2018-03-04T18:56:19.606Z,39.70
2018-03-04T18:58:45.664Z,39.83
2018-03-04T19:01:11.688Z,41.63
2018-03-04T19:03:37.802Z,40.30
2018-03-04T19:06:03.820Z,39.67
2018-03-04T19:08:29.869Z,41.47
2018-03-04T19:10:55.929Z,42.53
2018-03-04T19:13:21.981Z,41.57
2018-03-04T19:15:48.139Z,41.30
2018-03-04T19:18:14.169Z,40.33
2018-03-04T19:20:40.260Z,42.30
2018-03-04T19:23:06.314Z,42.40
2018-03-04T19:25:32.341Z,39.63
2018-03-04T19:27:58.360Z,38.87
2018-03-04T19:30:24.938Z,40.57
2018-03-04T19:32:51.020Z,40.77
2018-03-04T19:35:17.036Z,40.30
2018-03-04T19:37:43.103Z,42.60
2018-03-04T19:40:09.134Z,42.07
2018-03-04T19:42:38.847Z,41.20
2018-03-04T19:45:04.973Z,41.50
2018-03-04T19:47:31.096Z,39.27
2018-03-04T19:49:57.195Z,43.47
2018-03-04T19:52:23.214Z,42.57
2018-03-04T19:54:49.257Z,41.20
2018-03-04T19:57:15.241Z,36.03
2018-03-04T19:59:41.295Z,40.53
2018-03-04T20:02:07.238Z,39.73
2018-03-04T20:04:33.273Z,44.27
2018-03-04T20:06:59.386Z,45.73
2018-03-04T20:09:25.395Z,42.63
2018-03-04T20:11:51.444Z,40.10
2018-03-04T20:14:17.490Z,42.73
2018-03-04T20:16:43.649Z,38.67
2018-03-04T20:19:09.738Z,41.70
2018-03-04T20:21:35.884Z,39.93
2018-03-04T20:24:01.983Z,41.43
2018-03-04T20:26:28.009Z,42.17
2018-03-04T20:28:54.105Z,41.77
2018-03-04T20:31:20.209Z,42.00
2018-03-04T20:33:46.316Z,41.07
2018-03-04T20:36:12.427Z,41.83
2018-03-04T20:38:38.498Z,43.47
2018-03-04T20:41:04.641Z,41.70
2018-03-04T20:43:30.753Z,41.90
2018-03-04T20:45:56.911Z,44.07
2018-03-04T20:48:23.024Z,42.60
2018-03-04T20:50:49.094Z,43.20
2018-03-04T20:53:15.094Z,42.57
2018-03-04T20:55:41.162Z,42.90
2018-03-04T20:58:07.229Z,43.00
2018-03-04T21:00:33.238Z,40.30
2018-03-04T21:02:59.249Z,41.07
2018-03-04T21:05:25.273Z,40.60
2018-03-04T21:07:51.368Z,43.17
2018-03-04T21:10:17.340Z,41.30
2018-03-04T21:12:43.388Z,42.20
2018-03-04T21:15:09.450Z,39.93
2018-03-04T21:17:35.493Z,40.37
2018-03-04T21:20:01.544Z,38.73
2018-03-04T21:22:27.624Z,42.03
2018-03-04T21:24:53.713Z,39.60
2018-03-04T21:27:19.734Z,43.57
2018-03-04T21:29:45.786Z,40.10
2018-03-04T21:32:11.800Z,41.17
2018-03-04T21:34:37.865Z,42.73
2018-03-04T21:37:03.916Z,43.73
2018-03-04T21:39:29.993Z,43.63
2018-03-04T21:41:56.027Z,47.27
2018-03-04T21:44:22.029Z,45.90
2018-03-04T21:46:48.069Z,47.50
2018-03-04T21:49:14.117Z,43.00
2018-03-04T21:51:40.093Z,43.60
2018-03-04T21:54:06.152Z,42.20
2018-03-04T21:56:32.183Z,41.17
2018-03-04T21:58:58.233Z,43.30
2018-03-04T22:01:24.297Z,40.00
2018-03-04T22:03:50.337Z,41.90
2018-03-04T22:06:16.405Z,40.87
2018-03-04T22:08:42.402Z,41.90
2018-03-04T22:11:08.482Z,43.50
2018-03-04T22:13:34.529Z,39.97
2018-03-04T22:16:00.578Z,39.93
2018-03-04T22:18:26.661Z,42.47
2018-03-04T22:20:52.629Z,39.57
2018-03-04T22:23:18.686Z,41.20
2018-03-04T22:25:44.759Z,40.07
2018-03-04T22:28:10.721Z,39.43
2018-03-04T22:30:36.712Z,38.30
2018-03-04T22:33:02.754Z,38.50
2018-03-04T22:35:28.812Z,38.93
2018-03-04T22:37:54.921Z,39.67
2018-03-04T22:40:20.921Z,41.97
2018-03-04T22:42:46.993Z,37.20
2018-03-04T22:45:13.013Z,40.20
2018-03-04T22:47:39.059Z,40.83
2018-03-04T22:50:05.096Z,38.50
2018-03-04T22:52:31.162Z,39.67
2018-03-04T22:54:57.120Z,39.80
2018-03-04T22:57:23.168Z,40.53
2018-03-04T22:59:49.218Z,37.80
2018-03-04T23:02:15.214Z,38.17
2018-03-04T23:04:41.204Z,40.60
2018-03-04T23:07:07.256Z,39.30
2018-03-04T23:09:33.299Z,37.90
2018-03-04T23:11:59.353Z,38.57
2018-03-04T23:14:25.423Z,41.43
2018-03-04T23:16:51.525Z,40.30
2018-03-04T23:19:17.534Z,38.03
2018-03-04T23:21:43.605Z,40.30
2018-03-04T23:24:09.650Z,40.73
2018-03-04T23:26:35.662Z,38.37
2018-03-04T23:29:01.730Z,47.67
2018-03-04T23:31:27.736Z,39.50
2018-03-04T23:33:53.818Z,38.60
2018-03-04T23:36:19.810Z,38.50
2018-03-04T23:38:45.864Z,38.03
2018-03-04T23:41:11.905Z,38.10
2018-03-04T23:43:37.925Z,36.33
2018-03-04T23:46:03.971Z,36.97
2018-03-04T23:48:30.011Z,36.13
2018-03-04T23:50:56.046Z,39.00
2018-03-04T23:53:22.085Z,40.17
2018-03-04T23:55:48.686Z,38.57
2018-03-04T23:58:14.726Z,37.30
